PWSweather.com
Personal Weather Stations
Station Observations
K4FB1
Clubhouse Heritage, Lakeland, FL 33812

Clubhouse HeritageLakeland, FL 33812

Lat: 27.969224, Lon: -81.897769

Elevation: 145

Station Type: Davis Vantage Pro2

http://www.ClubhouseWX.com

High Low Average
Temperature 88.4°F31.3°C 64.5°F18.1°C 73.5°F23.1°C
Dew Point 68.0°F20.0°C -37.9°F-38.8°C 26.2°F-3.2°C
Winds 8.0 mph 12.9 kmh Calm Calm 3.0 mph ESE4.8 kmh ESE
Wind Gusts 18.0 mph29.0 kmh 2.0 mph3.2 kmh 8.0 mph12.9 kmh
Humidity 69% 0% 36%
Pressure 30.16 in1021.3 mb 30.05 in1017.6 mb -
Precipitation 0.00 in0.0 mm - -
Hour Temp Dew Point Humidity Winds Wind Gusts Pressure Precip Precip Rate Daily Precip Total
12:00 AM 67.0°F19.4°C 44.4°F6.9°C 44% 2.0 mph ESE3.2 kmh ESE 7.0 mph11.3 kmh 30.15 in1021.0 mb 0.00 in0.0 mm 0.00 in0.0 mm 0.00 in0.0 mm
12:05 AM 66.9°F19.4°C 42.4°F5.8°C 41% 2.0 mph ESE3.2 kmh ESE 7.0 mph11.3 kmh 30.14 in1020.7 mb 0.00 in0.0 mm 0.00 in0.0 mm 0.00 in0.0 mm
12:10 AM 66.8°F19.3°C 41.7°F5.4°C 40% 3.0 mph ESE4.8 kmh ESE 10.0 mph16.1 kmh 30.14 in1020.7 mb 0.00 in0.0 mm 0.00 in0.0 mm 0.00 in0.0 mm
12:15 AM 66.8°F19.3°C 41.0°F5.0°C 39% 3.0 mph ESE4.8 kmh ESE 10.0 mph16.1 kmh 30.14 in1020.7 mb 0.00 in0.0 mm 0.00 in0.0 mm 0.00 in0.0 mm
12:20 AM 66.7°F19.3°C 39.6°F4.2°C 37% 3.0 mph ESE4.8 kmh ESE 7.0 mph11.3 kmh 30.14 in1020.7 mb 0.00 in0.0 mm 0.00 in0.0 mm 0.00 in0.0 mm
12:25 AM 66.7°F19.3°C 38.9°F3.8°C 36% 3.0 mph ESE4.8 kmh ESE 7.0 mph11.3 kmh 30.14 in1020.7 mb 0.00 in0.0 mm 0.00 in0.0 mm 0.00 in0.0 mm
12:30 AM 66.6°F19.2°C 38.1°F3.4°C 35% 2.0 mph ESE3.2 kmh ESE 8.0 mph12.9 kmh 30.14 in1020.7 mb 0.00 in0.0 mm 0.00 in0.0 mm 0.00 in0.0 mm
12:35 AM 66.4°F19.1°C 36.4°F2.4°C 33% 2.0 mph ESE3.2 kmh ESE 8.0 mph12.9 kmh 30.13 in1020.3 mb 0.00 in0.0 mm 0.00 in0.0 mm 0.00 in0.0 mm
12:40 AM 66.3°F19.1°C 34.7°F1.5°C 31% 1.0 mph ESE1.6 kmh ESE 3.0 mph4.8 kmh 30.13 in1020.3 mb 0.00 in0.0 mm 0.00 in0.0 mm 0.00 in0.0 mm
12:45 AM 66.1°F18.9°C 31.1°F-0.5°C 27% 2.0 mph E3.2 kmh E 7.0 mph11.3 kmh 30.13 in1020.3 mb 0.00 in0.0 mm 0.00 in0.0 mm 0.00 in0.0 mm
12:50 AM 66.1°F18.9°C 25.0°F-3.9°C 21% 2.0 mph E3.2 kmh E 7.0 mph11.3 kmh 30.13 in1020.3 mb 0.00 in0.0 mm 0.00 in0.0 mm 0.00 in0.0 mm
12:55 AM 66.0°F18.9°C 23.7°F-4.6°C 20% 2.0 mph E3.2 kmh E 9.0 mph14.5 kmh 30.13 in1020.3 mb 0.00 in0.0 mm 0.00 in0.0 mm 0.00 in0.0 mm
01:00 AM 66.0°F18.9°C 19.9°F-6.7°C 17% 2.0 mph E3.2 kmh E 9.0 mph14.5 kmh 30.13 in1020.3 mb 0.00 in0.0 mm 0.00 in0.0 mm 0.00 in0.0 mm
01:05 AM 65.9°F18.8°C 16.9°F-8.4°C 15% 1.0 mph E1.6 kmh E 5.0 mph8.0 kmh 30.13 in1020.3 mb 0.00 in0.0 mm 0.00 in0.0 mm 0.00 in0.0 mm
01:10 AM 65.9°F18.8°C 11.8°F-11.2°C 12% 2.0 mph E3.2 kmh E 5.0 mph8.0 kmh 30.13 in1020.3 mb 0.00 in0.0 mm 0.00 in0.0 mm 0.00 in0.0 mm
01:15 AM 65.9°F18.8°C 5.4°F-14.8°C 9% 2.0 mph E3.2 kmh E 5.0 mph8.0 kmh 30.13 in1020.3 mb 0.00 in0.0 mm 0.00 in0.0 mm 0.00 in0.0 mm
01:20 AM 65.9°F18.8°C -0.1°F-17.8°C 7% 2.0 mph E3.2 kmh E 7.0 mph11.3 kmh 30.13 in1020.3 mb 0.00 in0.0 mm 0.00 in0.0 mm 0.00 in0.0 mm
01:25 AM 65.8°F18.8°C 2.7°F-16.3°C 8% 2.0 mph E3.2 kmh E 7.0 mph11.3 kmh 30.14 in1020.7 mb 0.00 in0.0 mm 0.00 in0.0 mm 0.00 in0.0 mm
01:30 AM 65.8°F18.8°C -3.4°F-19.7°C 6% 1.0 mph E1.6 kmh E 5.0 mph8.0 kmh 30.14 in1020.7 mb 0.00 in0.0 mm 0.00 in0.0 mm 0.00 in0.0 mm
01:35 AM 65.7°F18.7°C -11.8°F-24.3°C 4% 1.0 mph E1.6 kmh E 5.0 mph8.0 kmh 30.14 in1020.7 mb 0.00 in0.0 mm 0.00 in0.0 mm 0.00 in0.0 mm
01:40 AM 65.6°F18.7°C -17.6°F-27.6°C 3% 1.0 mph E1.6 kmh E 5.0 mph8.0 kmh 30.13 in1020.3 mb 0.00 in0.0 mm 0.00 in0.0 mm 0.00 in0.0 mm
01:45 AM 65.6°F18.7°C -37.9°F-38.8°C 0% 1.0 mph E1.6 kmh E 6.0 mph9.7 kmh 30.13 in1020.3 mb 0.00 in0.0 mm 0.00 in0.0 mm 0.00 in0.0 mm
01:50 AM 65.5°F18.6°C -37.9°F-38.8°C 0% 1.0 mph E1.6 kmh E 6.0 mph9.7 kmh 30.13 in1020.3 mb 0.00 in0.0 mm 0.00 in0.0 mm 0.00 in0.0 mm
01:55 AM 65.4°F18.6°C -37.9°F-38.8°C 0% 1.0 mph E1.6 kmh E 5.0 mph8.0 kmh 30.13 in1020.3 mb 0.00 in0.0 mm 0.00 in0.0 mm 0.00 in0.0 mm
02:00 AM 65.3°F18.5°C -37.9°F-38.8°C 0% 1.0 mph E1.6 kmh E 3.0 mph4.8 kmh 30.13 in1020.3 mb 0.00 in0.0 mm 0.00 in0.0 mm 0.00 in0.0 mm
02:05 AM 65.3°F18.5°C -37.9°F-38.8°C 0% 1.0 mph E1.6 kmh E 3.0 mph4.8 kmh 30.13 in1020.3 mb 0.00 in0.0 mm 0.00 in0.0 mm 0.00 in0.0 mm
02:10 AM 65.2°F18.4°C -37.9°F-38.8°C 0% 1.0 mph E1.6 kmh E 3.0 mph4.8 kmh 30.13 in1020.3 mb 0.00 in0.0 mm 0.00 in0.0 mm 0.00 in0.0 mm
02:15 AM 65.1°F18.4°C -37.9°F-38.8°C 0% Calm Calm 2.0 mph3.2 kmh 30.12 in1020.0 mb 0.00 in0.0 mm 0.00 in0.0 mm 0.00 in0.0 mm
02:20 AM 65.0°F18.3°C -37.9°F-38.8°C 0% Calm Calm 5.0 mph8.0 kmh 30.12 in1020.0 mb 0.00 in0.0 mm 0.00 in0.0 mm 0.00 in0.0 mm
02:25 AM 65.0°F18.3°C -37.9°F-38.8°C 0% 1.0 mph E1.6 kmh E 5.0 mph8.0 kmh 30.11 in1019.6 mb 0.00 in0.0 mm 0.00 in0.0 mm 0.00 in0.0 mm
02:30 AM 65.0°F18.3°C -37.9°F-38.8°C 0% 1.0 mph E1.6 kmh E 3.0 mph4.8 kmh 30.11 in1019.6 mb 0.00 in0.0 mm 0.00 in0.0 mm 0.00 in0.0 mm
02:35 AM 65.0°F18.3°C -37.9°F-38.8°C 0% 1.0 mph E1.6 kmh E 5.0 mph8.0 kmh 30.12 in1020.0 mb 0.00 in0.0 mm 0.00 in0.0 mm 0.00 in0.0 mm
02:40 AM 65.0°F18.3°C -37.9°F-38.8°C 0% 1.0 mph E1.6 kmh E 6.0 mph9.7 kmh 30.11 in1019.6 mb 0.00 in0.0 mm 0.00 in0.0 mm 0.00 in0.0 mm
02:45 AM 65.1°F18.4°C -37.9°F-38.8°C 0% 2.0 mph ESE3.2 kmh ESE 7.0 mph11.3 kmh 30.11 in1019.6 mb 0.00 in0.0 mm 0.00 in0.0 mm 0.00 in0.0 mm
02:50 AM 65.1°F18.4°C -37.9°F-38.8°C 0% 2.0 mph ESE3.2 kmh ESE 7.0 mph11.3 kmh 30.11 in1019.6 mb 0.00 in0.0 mm 0.00 in0.0 mm 0.00 in0.0 mm
02:55 AM 65.1°F18.4°C -37.9°F-38.8°C 0% 1.0 mph ESE1.6 kmh ESE 4.0 mph6.4 kmh 30.11 in1019.6 mb 0.00 in0.0 mm 0.00 in0.0 mm 0.00 in0.0 mm
03:00 AM 65.1°F18.4°C -37.9°F-38.8°C 0% 1.0 mph ESE1.6 kmh ESE 4.0 mph6.4 kmh 30.10 in1019.3 mb 0.00 in0.0 mm 0.00 in0.0 mm 0.00 in0.0 mm
03:05 AM 65.1°F18.4°C -37.9°F-38.8°C 0% 1.0 mph ESE1.6 kmh ESE 4.0 mph6.4 kmh 30.10 in1019.3 mb 0.00 in0.0 mm 0.00 in0.0 mm 0.00 in0.0 mm
03:10 AM 65.0°F18.3°C -37.9°F-38.8°C 0% 1.0 mph E1.6 kmh E 3.0 mph4.8 kmh 30.10 in1019.3 mb 0.00 in0.0 mm 0.00 in0.0 mm 0.00 in0.0 mm
03:15 AM 64.9°F18.3°C -37.9°F-38.8°C 0% 1.0 mph E1.6 kmh E 3.0 mph4.8 kmh 30.10 in1019.3 mb 0.00 in0.0 mm 0.00 in0.0 mm 0.00 in0.0 mm
03:20 AM 65.0°F18.3°C -37.9°F-38.8°C 0% 1.0 mph E1.6 kmh E 4.0 mph6.4 kmh 30.09 in1019.0 mb 0.00 in0.0 mm 0.00 in0.0 mm 0.00 in0.0 mm
03:25 AM 65.0°F18.3°C -37.9°F-38.8°C 0% 1.0 mph E1.6 kmh E 4.0 mph6.4 kmh 30.09 in1019.0 mb 0.00 in0.0 mm 0.00 in0.0 mm 0.00 in0.0 mm
03:30 AM 65.0°F18.3°C -37.9°F-38.8°C 0% 1.0 mph E1.6 kmh E 3.0 mph4.8 kmh 30.09 in1019.0 mb 0.00 in0.0 mm 0.00 in0.0 mm 0.00 in0.0 mm
03:35 AM 65.0°F18.3°C -37.9°F-38.8°C 0% 1.0 mph E1.6 kmh E 6.0 mph9.7 kmh 30.09 in1019.0 mb 0.00 in0.0 mm 0.00 in0.0 mm 0.00 in0.0 mm
03:40 AM 65.0°F18.3°C -37.9°F-38.8°C 0% 2.0 mph E3.2 kmh E 6.0 mph9.7 kmh 30.09 in1019.0 mb 0.00 in0.0 mm 0.00 in0.0 mm 0.00 in0.0 mm
03:45 AM 64.9°F18.3°C -37.9°F-38.8°C 0% 1.0 mph E1.6 kmh E 6.0 mph9.7 kmh 30.09 in1019.0 mb 0.00 in0.0 mm 0.00 in0.0 mm 0.00 in0.0 mm
03:50 AM 64.9°F18.3°C -37.9°F-38.8°C 0% 1.0 mph E1.6 kmh E 3.0 mph4.8 kmh 30.09 in1019.0 mb 0.00 in0.0 mm 0.00 in0.0 mm 0.00 in0.0 mm
03:55 AM 64.7°F18.2°C -37.9°F-38.8°C 0% 1.0 mph E1.6 kmh E 3.0 mph4.8 kmh 30.09 in1019.0 mb 0.00 in0.0 mm 0.00 in0.0 mm 0.00 in0.0 mm
04:00 AM 64.7°F18.2°C -37.9°F-38.8°C 0% 1.0 mph E1.6 kmh E 3.0 mph4.8 kmh 30.09 in1019.0 mb 0.00 in0.0 mm 0.00 in0.0 mm 0.00 in0.0 mm
04:05 AM 64.6°F18.1°C -37.9°F-38.8°C 0% 1.0 mph E1.6 kmh E 3.0 mph4.8 kmh 30.09 in1019.0 mb 0.00 in0.0 mm 0.00 in0.0 mm 0.00 in0.0 mm
04:10 AM 64.6°F18.1°C -37.9°F-38.8°C 0% 1.0 mph E1.6 kmh E 3.0 mph4.8 kmh 30.09 in1019.0 mb 0.00 in0.0 mm 0.00 in0.0 mm 0.00 in0.0 mm
04:15 AM 64.6°F18.1°C -37.9°F-38.8°C 0% 1.0 mph E1.6 kmh E 2.0 mph3.2 kmh 30.08 in1018.6 mb 0.00 in0.0 mm 0.00 in0.0 mm 0.00 in0.0 mm
04:20 AM 64.6°F18.1°C -37.9°F-38.8°C 0% 1.0 mph E1.6 kmh E 3.0 mph4.8 kmh 30.08 in1018.6 mb 0.00 in0.0 mm 0.00 in0.0 mm 0.00 in0.0 mm
04:25 AM 64.6°F18.1°C -37.9°F-38.8°C 0% 1.0 mph ENE1.6 kmh ENE 4.0 mph6.4 kmh 30.08 in1018.6 mb 0.00 in0.0 mm 0.00 in0.0 mm 0.00 in0.0 mm
04:30 AM 64.5°F18.1°C -37.9°F-38.8°C 0% 1.0 mph ENE1.6 kmh ENE 4.0 mph6.4 kmh 30.08 in1018.6 mb 0.00 in0.0 mm 0.00 in0.0 mm 0.00 in0.0 mm
04:35 AM 64.5°F18.1°C -37.9°F-38.8°C 0% 1.0 mph ENE1.6 kmh ENE 2.0 mph3.2 kmh 30.08 in1018.6 mb 0.00 in0.0 mm 0.00 in0.0 mm 0.00 in0.0 mm
04:40 AM 64.5°F18.1°C -37.9°F-38.8°C 0% 1.0 mph ENE1.6 kmh ENE 5.0 mph8.0 kmh 30.08 in1018.6 mb 0.00 in0.0 mm 0.00 in0.0 mm 0.00 in0.0 mm
04:45 AM 64.5°F18.1°C -37.9°F-38.8°C 0% 1.0 mph E1.6 kmh E 5.0 mph8.0 kmh 30.09 in1019.0 mb 0.00 in0.0 mm 0.00 in0.0 mm 0.00 in0.0 mm
04:50 AM 64.5°F18.1°C -37.9°F-38.8°C 0% 1.0 mph E1.6 kmh E 3.0 mph4.8 kmh 30.08 in1018.6 mb 0.00 in0.0 mm 0.00 in0.0 mm 0.00 in0.0 mm
04:55 AM 64.7°F18.2°C -37.9°F-38.8°C 0% 1.0 mph E1.6 kmh E 5.0 mph8.0 kmh 30.08 in1018.6 mb 0.00 in0.0 mm 0.00 in0.0 mm 0.00 in0.0 mm
05:00 AM 64.7°F18.2°C -37.9°F-38.8°C 0% 2.0 mph E3.2 kmh E 7.0 mph11.3 kmh 30.08 in1018.6 mb 0.00 in0.0 mm 0.00 in0.0 mm 0.00 in0.0 mm
05:05 AM 64.8°F18.2°C -37.9°F-38.8°C 0% 2.0 mph E3.2 kmh E 7.0 mph11.3 kmh 30.08 in1018.6 mb 0.00 in0.0 mm 0.00 in0.0 mm 0.00 in0.0 mm
05:10 AM 64.9°F18.3°C -37.9°F-38.8°C 0% 2.0 mph E3.2 kmh E 3.0 mph4.8 kmh 30.08 in1018.6 mb 0.00 in0.0 mm 0.00 in0.0 mm 0.00 in0.0 mm
05:15 AM 65.0°F18.3°C -37.9°F-38.8°C 0% 2.0 mph E3.2 kmh E 7.0 mph11.3 kmh 30.08 in1018.6 mb 0.00 in0.0 mm 0.00 in0.0 mm 0.00 in0.0 mm
05:20 AM 65.0°F18.3°C -37.9°F-38.8°C 0% 2.0 mph ESE3.2 kmh ESE 7.0 mph11.3 kmh 30.08 in1018.6 mb 0.00 in0.0 mm 0.00 in0.0 mm 0.00 in0.0 mm
05:25 AM 65.0°F18.3°C -37.9°F-38.8°C 0% 2.0 mph ESE3.2 kmh ESE 6.0 mph9.7 kmh 30.08 in1018.6 mb 0.00 in0.0 mm 0.00 in0.0 mm 0.00 in0.0 mm
05:30 AM 65.0°F18.3°C -37.9°F-38.8°C 0% 2.0 mph SE3.2 kmh SE 6.0 mph9.7 kmh 30.08 in1018.6 mb 0.00 in0.0 mm 0.00 in0.0 mm 0.00 in0.0 mm
05:35 AM 65.0°F18.3°C -37.9°F-38.8°C 0% 2.0 mph ESE3.2 kmh ESE 5.0 mph8.0 kmh 30.08 in1018.6 mb 0.00 in0.0 mm 0.00 in0.0 mm 0.00 in0.0 mm
05:40 AM 64.9°F18.3°C -37.9°F-38.8°C 0% 1.0 mph SE1.6 kmh SE 5.0 mph8.0 kmh 30.08 in1018.6 mb 0.00 in0.0 mm 0.00 in0.0 mm 0.00 in0.0 mm
05:45 AM 64.9°F18.3°C -37.9°F-38.8°C 0% 1.0 mph SE1.6 kmh SE 4.0 mph6.4 kmh 30.08 in1018.6 mb 0.00 in0.0 mm 0.00 in0.0 mm 0.00 in0.0 mm
05:50 AM 64.8°F18.2°C -37.9°F-38.8°C 0% 1.0 mph SE1.6 kmh SE 5.0 mph8.0 kmh 30.09 in1019.0 mb 0.00 in0.0 mm 0.00 in0.0 mm 0.00 in0.0 mm
05:55 AM 64.8°F18.2°C -37.9°F-38.8°C 0% 2.0 mph SE3.2 kmh SE 5.0 mph8.0 kmh 30.08 in1018.6 mb 0.00 in0.0 mm 0.00 in0.0 mm 0.00 in0.0 mm
06:00 AM 64.9°F18.3°C -37.9°F-38.8°C 0% 2.0 mph SE3.2 kmh SE 5.0 mph8.0 kmh 30.08 in1018.6 mb 0.00 in0.0 mm 0.00 in0.0 mm 0.00 in0.0 mm
06:05 AM 65.0°F18.3°C -37.9°F-38.8°C 0% 3.0 mph ESE4.8 kmh ESE 7.0 mph11.3 kmh 30.08 in1018.6 mb 0.00 in0.0 mm 0.00 in0.0 mm 0.00 in0.0 mm
06:10 AM 65.0°F18.3°C -37.9°F-38.8°C 0% 3.0 mph ESE4.8 kmh ESE 7.0 mph11.3 kmh 30.09 in1019.0 mb 0.00 in0.0 mm 0.00 in0.0 mm 0.00 in0.0 mm
06:15 AM 65.1°F18.4°C -37.9°F-38.8°C 0% 3.0 mph ESE4.8 kmh ESE 7.0 mph11.3 kmh 30.09 in1019.0 mb 0.00 in0.0 mm 0.00 in0.0 mm 0.00 in0.0 mm
06:20 AM 65.0°F18.3°C -37.9°F-38.8°C 0% 2.0 mph ESE3.2 kmh ESE 6.0 mph9.7 kmh 30.09 in1019.0 mb 0.00 in0.0 mm 0.00 in0.0 mm 0.00 in0.0 mm
06:25 AM 65.0°F18.3°C -37.9°F-38.8°C 0% 2.0 mph SE3.2 kmh SE 6.0 mph9.7 kmh 30.09 in1019.0 mb 0.00 in0.0 mm 0.00 in0.0 mm 0.00 in0.0 mm
06:30 AM 65.0°F18.3°C -37.9°F-38.8°C 0% 2.0 mph ESE3.2 kmh ESE 5.0 mph8.0 kmh 30.09 in1019.0 mb 0.00 in0.0 mm 0.00 in0.0 mm 0.00 in0.0 mm
06:35 AM 64.9°F18.3°C -37.9°F-38.8°C 0% 2.0 mph ESE3.2 kmh ESE 4.0 mph6.4 kmh 30.09 in1019.0 mb 0.00 in0.0 mm 0.00 in0.0 mm 0.00 in0.0 mm
06:40 AM 64.9°F18.3°C -37.9°F-38.8°C 0% 2.0 mph ESE3.2 kmh ESE 5.0 mph8.0 kmh 30.10 in1019.3 mb 0.00 in0.0 mm 0.00 in0.0 mm 0.00 in0.0 mm
06:45 AM 64.9°F18.3°C -37.9°F-38.8°C 0% 2.0 mph ESE3.2 kmh ESE 5.0 mph8.0 kmh 30.10 in1019.3 mb 0.00 in0.0 mm 0.00 in0.0 mm 0.00 in0.0 mm
06:50 AM 64.9°F18.3°C -37.9°F-38.8°C 0% 2.0 mph ESE3.2 kmh ESE 4.0 mph6.4 kmh 30.10 in1019.3 mb 0.00 in0.0 mm 0.00 in0.0 mm 0.00 in0.0 mm
06:55 AM 64.8°F18.2°C -37.9°F-38.8°C 0% 2.0 mph ESE3.2 kmh ESE 4.0 mph6.4 kmh 30.10 in1019.3 mb 0.00 in0.0 mm 0.00 in0.0 mm 0.00 in0.0 mm
07:00 AM 64.8°F18.2°C -37.9°F-38.8°C 0% 2.0 mph ESE3.2 kmh ESE 6.0 mph9.7 kmh 30.10 in1019.3 mb 0.00 in0.0 mm 0.00 in0.0 mm 0.00 in0.0 mm
07:05 AM 64.8°F18.2°C -37.9°F-38.8°C 0% 3.0 mph ESE4.8 kmh ESE 6.0 mph9.7 kmh 30.11 in1019.6 mb 0.00 in0.0 mm 0.00 in0.0 mm 0.00 in0.0 mm
07:10 AM 64.7°F18.2°C -37.9°F-38.8°C 0% 2.0 mph ESE3.2 kmh ESE 5.0 mph8.0 kmh 30.10 in1019.3 mb 0.00 in0.0 mm 0.00 in0.0 mm 0.00 in0.0 mm
07:15 AM 64.7°F18.2°C -37.9°F-38.8°C 0% 2.0 mph ESE3.2 kmh ESE 5.0 mph8.0 kmh 30.11 in1019.6 mb 0.00 in0.0 mm 0.00 in0.0 mm 0.00 in0.0 mm
07:20 AM 64.6°F18.1°C -37.9°F-38.8°C 0% 2.0 mph ESE3.2 kmh ESE 5.0 mph8.0 kmh 30.11 in1019.6 mb 0.00 in0.0 mm 0.00 in0.0 mm 0.00 in0.0 mm
07:25 AM 64.6°F18.1°C -37.9°F-38.8°C 0% 2.0 mph ESE3.2 kmh ESE 5.0 mph8.0 kmh 30.11 in1019.6 mb 0.00 in0.0 mm 0.00 in0.0 mm 0.00 in0.0 mm
07:30 AM 64.5°F18.1°C -37.9°F-38.8°C 0% 2.0 mph ESE3.2 kmh ESE 5.0 mph8.0 kmh 30.11 in1019.6 mb 0.00 in0.0 mm 0.00 in0.0 mm 0.00 in0.0 mm
07:35 AM 64.5°F18.1°C -37.9°F-38.8°C 0% 2.0 mph ESE3.2 kmh ESE 4.0 mph6.4 kmh 30.11 in1019.6 mb 0.00 in0.0 mm 0.00 in0.0 mm 0.00 in0.0 mm
07:40 AM 64.5°F18.1°C -37.9°F-38.8°C 0% 2.0 mph ESE3.2 kmh ESE 5.0 mph8.0 kmh 30.11 in1019.6 mb 0.00 in0.0 mm 0.00 in0.0 mm 0.00 in0.0 mm
07:45 AM 64.5°F18.1°C -37.9°F-38.8°C 0% 2.0 mph ESE3.2 kmh ESE 5.0 mph8.0 kmh 30.11 in1019.6 mb 0.00 in0.0 mm 0.00 in0.0 mm 0.00 in0.0 mm
07:50 AM 64.5°F18.1°C -37.9°F-38.8°C 0% 2.0 mph SE3.2 kmh SE 5.0 mph8.0 kmh 30.11 in1019.6 mb 0.00 in0.0 mm 0.00 in0.0 mm 0.00 in0.0 mm
07:55 AM 64.5°F18.1°C -37.9°F-38.8°C 0% 2.0 mph SE3.2 kmh SE 5.0 mph8.0 kmh 30.11 in1019.6 mb 0.00 in0.0 mm 0.00 in0.0 mm 0.00 in0.0 mm
08:00 AM 64.6°F18.1°C -37.9°F-38.8°C 0% 2.0 mph SE3.2 kmh SE 7.0 mph11.3 kmh 30.11 in1019.6 mb 0.00 in0.0 mm 0.00 in0.0 mm 0.00 in0.0 mm
08:05 AM 64.8°F18.2°C -37.9°F-38.8°C 0% 2.0 mph ESE3.2 kmh ESE 7.0 mph11.3 kmh 30.11 in1019.6 mb 0.00 in0.0 mm 0.00 in0.0 mm 0.00 in0.0 mm
08:10 AM 64.9°F18.3°C -37.9°F-38.8°C 0% 3.0 mph ESE4.8 kmh ESE 5.0 mph8.0 kmh 30.12 in1020.0 mb 0.00 in0.0 mm 0.00 in0.0 mm 0.00 in0.0 mm
08:15 AM 65.1°F18.4°C -37.9°F-38.8°C 0% 2.0 mph SE3.2 kmh SE 5.0 mph8.0 kmh 30.12 in1020.0 mb 0.00 in0.0 mm 0.00 in0.0 mm 0.00 in0.0 mm
08:20 AM 65.3°F18.5°C -37.9°F-38.8°C 0% 2.0 mph SE3.2 kmh SE 5.0 mph8.0 kmh 30.12 in1020.0 mb 0.00 in0.0 mm 0.00 in0.0 mm 0.00 in0.0 mm
08:25 AM 65.5°F18.6°C -37.9°F-38.8°C 0% 3.0 mph SE4.8 kmh SE 5.0 mph8.0 kmh 30.12 in1020.0 mb 0.00 in0.0 mm 0.00 in0.0 mm 0.00 in0.0 mm
08:30 AM 65.8°F18.8°C -37.9°F-38.8°C 0% 3.0 mph ESE4.8 kmh ESE 7.0 mph11.3 kmh 30.12 in1020.0 mb 0.00 in0.0 mm 0.00 in0.0 mm 0.00 in0.0 mm
08:35 AM 66.0°F18.9°C -37.9°F-38.8°C 0% 3.0 mph ESE4.8 kmh ESE 7.0 mph11.3 kmh 30.12 in1020.0 mb 0.00 in0.0 mm 0.00 in0.0 mm 0.00 in0.0 mm
08:40 AM 66.3°F19.1°C -37.9°F-38.8°C 0% 2.0 mph SE3.2 kmh SE 7.0 mph11.3 kmh 30.12 in1020.0 mb 0.00 in0.0 mm 0.00 in0.0 mm 0.00 in0.0 mm
08:45 AM 66.6°F19.2°C -37.9°F-38.8°C 0% 3.0 mph SE4.8 kmh SE 7.0 mph11.3 kmh 30.12 in1020.0 mb 0.00 in0.0 mm 0.00 in0.0 mm 0.00 in0.0 mm
08:50 AM 66.8°F19.3°C -37.9°F-38.8°C 0% 3.0 mph SE4.8 kmh SE 7.0 mph11.3 kmh 30.13 in1020.3 mb 0.00 in0.0 mm 0.00 in0.0 mm 0.00 in0.0 mm
08:55 AM 67.1°F19.5°C -37.9°F-38.8°C 0% 3.0 mph SE4.8 kmh SE 7.0 mph11.3 kmh 30.13 in1020.3 mb 0.00 in0.0 mm 0.00 in0.0 mm 0.00 in0.0 mm
09:00 AM 67.4°F19.7°C -37.9°F-38.8°C 0% 2.0 mph SE3.2 kmh SE 7.0 mph11.3 kmh 30.13 in1020.3 mb 0.00 in0.0 mm 0.00 in0.0 mm 0.00 in0.0 mm
09:05 AM 67.8°F19.9°C -37.9°F-38.8°C 0% 3.0 mph ESE4.8 kmh ESE 8.0 mph12.9 kmh 30.14 in1020.7 mb 0.00 in0.0 mm 0.00 in0.0 mm 0.00 in0.0 mm
09:10 AM 68.4°F20.2°C -37.9°F-38.8°C 0% 3.0 mph SE4.8 kmh SE 9.0 mph14.5 kmh 30.14 in1020.7 mb 0.00 in0.0 mm 0.00 in0.0 mm 0.00 in0.0 mm
09:15 AM 68.9°F20.5°C -37.9°F-38.8°C 0% 3.0 mph SE4.8 kmh SE 9.0 mph14.5 kmh 30.14 in1020.7 mb 0.00 in0.0 mm 0.00 in0.0 mm 0.00 in0.0 mm
09:20 AM 69.4°F20.8°C -37.9°F-38.8°C 0% 3.0 mph ESE4.8 kmh ESE 10.0 mph16.1 kmh 30.14 in1020.7 mb 0.00 in0.0 mm 0.00 in0.0 mm 0.00 in0.0 mm
09:25 AM 69.8°F21.0°C -35.3°F-37.4°C 1% 4.0 mph ESE6.4 kmh ESE 10.0 mph16.1 kmh 30.14 in1020.7 mb 0.00 in0.0 mm 0.00 in0.0 mm 0.00 in0.0 mm
09:30 AM 70.3°F21.3°C 6.1°F-14.4°C 8% 5.0 mph SE8.0 kmh SE 9.0 mph14.5 kmh 30.14 in1020.7 mb 0.00 in0.0 mm 0.00 in0.0 mm 0.00 in0.0 mm
09:35 AM 70.8°F21.6°C 20.8°F-6.2°C 15% 4.0 mph ESE6.4 kmh ESE 10.0 mph16.1 kmh 30.14 in1020.7 mb 0.00 in0.0 mm 0.00 in0.0 mm 0.00 in0.0 mm
09:40 AM 71.2°F21.8°C 25.5°F-3.6°C 18% 4.0 mph ESE6.4 kmh ESE 10.0 mph16.1 kmh 30.14 in1020.7 mb 0.00 in0.0 mm 0.00 in0.0 mm 0.00 in0.0 mm
09:45 AM 71.7°F22.1°C 30.8°F-0.7°C 22% 4.0 mph ESE6.4 kmh ESE 10.0 mph16.1 kmh 30.15 in1021.0 mb 0.00 in0.0 mm 0.00 in0.0 mm 0.00 in0.0 mm
09:50 AM 72.2°F22.3°C 35.4°F1.9°C 26% 5.0 mph ESE8.0 kmh ESE 14.0 mph22.5 kmh 30.15 in1021.0 mb 0.00 in0.0 mm 0.00 in0.0 mm 0.00 in0.0 mm
09:55 AM 72.7°F22.6°C 38.6°F3.7°C 29% 4.0 mph ESE6.4 kmh ESE 14.0 mph22.5 kmh 30.15 in1021.0 mb 0.00 in0.0 mm 0.00 in0.0 mm 0.00 in0.0 mm
10:00 AM 73.3°F22.9°C 44.0°F6.7°C 35% 4.0 mph ESE6.4 kmh ESE 11.0 mph17.7 kmh 30.14 in1020.7 mb 0.00 in0.0 mm 0.00 in0.0 mm 0.00 in0.0 mm
10:05 AM 73.8°F23.2°C 48.0°F8.9°C 40% 5.0 mph ESE8.0 kmh ESE 11.0 mph17.7 kmh 30.14 in1020.7 mb 0.00 in0.0 mm 0.00 in0.0 mm 0.00 in0.0 mm
10:10 AM 74.4°F23.6°C 48.5°F9.2°C 40% 4.0 mph ESE6.4 kmh ESE 10.0 mph16.1 kmh 30.15 in1021.0 mb 0.00 in0.0 mm 0.00 in0.0 mm 0.00 in0.0 mm
10:15 AM 75.0°F23.9°C 52.2°F11.2°C 45% 4.0 mph SE6.4 kmh SE 10.0 mph16.1 kmh 30.15 in1021.0 mb 0.00 in0.0 mm 0.00 in0.0 mm 0.00 in0.0 mm
10:20 AM 75.5°F24.2°C 55.0°F12.8°C 49% 4.0 mph ESE6.4 kmh ESE 11.0 mph17.7 kmh 30.15 in1021.0 mb 0.00 in0.0 mm 0.00 in0.0 mm 0.00 in0.0 mm
10:25 AM 75.9°F24.4°C 57.0°F13.9°C 52% 4.0 mph ESE6.4 kmh ESE 11.0 mph17.7 kmh 30.15 in1021.0 mb 0.00 in0.0 mm 0.00 in0.0 mm 0.00 in0.0 mm
10:30 AM 76.2°F24.6°C 58.9°F14.9°C 55% 5.0 mph ESE8.0 kmh ESE 12.0 mph19.3 kmh 30.15 in1021.0 mb 0.00 in0.0 mm 0.00 in0.0 mm 0.00 in0.0 mm
10:35 AM 76.6°F24.8°C 60.7°F15.9°C 58% 5.0 mph ESE8.0 kmh ESE 12.0 mph19.3 kmh 30.16 in1021.3 mb 0.00 in0.0 mm 0.00 in0.0 mm 0.00 in0.0 mm
10:40 AM 76.6°F24.8°C 61.7°F16.5°C 60% 5.0 mph ESE8.0 kmh ESE 13.0 mph20.9 kmh 30.16 in1021.3 mb 0.00 in0.0 mm 0.00 in0.0 mm 0.00 in0.0 mm
10:45 AM 76.8°F24.9°C 62.3°F16.8°C 61% 5.0 mph SE8.0 kmh SE 13.0 mph20.9 kmh 30.16 in1021.3 mb 0.00 in0.0 mm 0.00 in0.0 mm 0.00 in0.0 mm
10:50 AM 77.0°F25.0°C 63.9°F17.7°C 64% 6.0 mph SE9.7 kmh SE 13.0 mph20.9 kmh 30.16 in1021.3 mb 0.00 in0.0 mm 0.00 in0.0 mm 0.00 in0.0 mm
10:55 AM 77.0°F25.0°C 63.4°F17.4°C 63% 8.0 mph SE12.9 kmh SE 15.0 mph24.1 kmh 30.16 in1021.3 mb 0.00 in0.0 mm 0.00 in0.0 mm 0.00 in0.0 mm
11:00 AM 77.5°F25.3°C 63.9°F17.7°C 63% 7.0 mph SE11.3 kmh SE 15.0 mph24.1 kmh 30.16 in1021.3 mb 0.00 in0.0 mm 0.00 in0.0 mm 0.00 in0.0 mm
11:05 AM 78.0°F25.6°C 65.3°F18.5°C 65% 6.0 mph SE9.7 kmh SE 12.0 mph19.3 kmh 30.15 in1021.0 mb 0.00 in0.0 mm 0.00 in0.0 mm 0.00 in0.0 mm
11:10 AM 78.4°F25.8°C 65.7°F18.7°C 65% 6.0 mph SE9.7 kmh SE 14.0 mph22.5 kmh 30.16 in1021.3 mb 0.00 in0.0 mm 0.00 in0.0 mm 0.00 in0.0 mm
11:15 AM 79.1°F26.2°C 66.3°F19.1°C 65% 5.0 mph ESE8.0 kmh ESE 14.0 mph22.5 kmh 30.16 in1021.3 mb 0.00 in0.0 mm 0.00 in0.0 mm 0.00 in0.0 mm
11:20 AM 79.4°F26.3°C 66.6°F19.2°C 65% 6.0 mph SE9.7 kmh SE 17.0 mph27.4 kmh 30.16 in1021.3 mb 0.00 in0.0 mm 0.00 in0.0 mm 0.00 in0.0 mm
11:25 AM 79.4°F26.3°C 66.6°F19.2°C 65% 6.0 mph SE9.7 kmh SE 17.0 mph27.4 kmh 30.16 in1021.3 mb 0.00 in0.0 mm 0.00 in0.0 mm 0.00 in0.0 mm
11:30 AM 79.2°F26.2°C 66.0°F18.9°C 64% 6.0 mph SE9.7 kmh SE 11.0 mph17.7 kmh 30.16 in1021.3 mb 0.00 in0.0 mm 0.00 in0.0 mm 0.00 in0.0 mm
11:35 AM 78.7°F25.9°C 65.5°F18.6°C 64% 7.0 mph SE11.3 kmh SE 16.0 mph25.7 kmh 30.16 in1021.3 mb 0.00 in0.0 mm 0.00 in0.0 mm 0.00 in0.0 mm
11:40 AM 79.0°F26.1°C 66.2°F19.0°C 65% 6.0 mph SE9.7 kmh SE 16.0 mph25.7 kmh 30.16 in1021.3 mb 0.00 in0.0 mm 0.00 in0.0 mm 0.00 in0.0 mm
11:45 AM 79.4°F26.3°C 66.2°F19.0°C 64% 5.0 mph ESE8.0 kmh ESE 14.0 mph22.5 kmh 30.15 in1021.0 mb 0.00 in0.0 mm 0.00 in0.0 mm 0.00 in0.0 mm
11:50 AM 79.5°F26.4°C 66.3°F19.1°C 64% 6.0 mph ESE9.7 kmh ESE 14.0 mph22.5 kmh 30.15 in1021.0 mb 0.00 in0.0 mm 0.00 in0.0 mm 0.00 in0.0 mm
11:55 AM 79.7°F26.5°C 66.4°F19.1°C 64% 7.0 mph ESE11.3 kmh ESE 12.0 mph19.3 kmh 30.15 in1021.0 mb 0.00 in0.0 mm 0.00 in0.0 mm 0.00 in0.0 mm
12:00 PM 79.7°F26.5°C 66.0°F18.9°C 63% 7.0 mph SE11.3 kmh SE 13.0 mph20.9 kmh 30.15 in1021.0 mb 0.00 in0.0 mm 0.00 in0.0 mm 0.00 in0.0 mm
12:05 PM 79.4°F26.3°C 66.6°F19.2°C 65% 6.0 mph SE9.7 kmh SE 13.0 mph20.9 kmh 30.15 in1021.0 mb 0.00 in0.0 mm 0.00 in0.0 mm 0.00 in0.0 mm
12:10 PM 79.5°F26.4°C 65.8°F18.8°C 63% 6.0 mph SE9.7 kmh SE 13.0 mph20.9 kmh 30.15 in1021.0 mb 0.00 in0.0 mm 0.00 in0.0 mm 0.00 in0.0 mm
12:15 PM 79.4°F26.3°C 66.2°F19.0°C 64% 7.0 mph SE11.3 kmh SE 13.0 mph20.9 kmh 30.14 in1020.7 mb 0.00 in0.0 mm 0.00 in0.0 mm 0.00 in0.0 mm
12:20 PM 79.7°F26.5°C 66.4°F19.1°C 64% 7.0 mph SE11.3 kmh SE 12.0 mph19.3 kmh 30.14 in1020.7 mb 0.00 in0.0 mm 0.00 in0.0 mm 0.00 in0.0 mm
12:25 PM 80.0°F26.7°C 66.3°F19.1°C 63% 6.0 mph SE9.7 kmh SE 12.0 mph19.3 kmh 30.14 in1020.7 mb 0.00 in0.0 mm 0.00 in0.0 mm 0.00 in0.0 mm
12:30 PM 80.7°F27.1°C 66.9°F19.4°C 63% 6.0 mph SE9.7 kmh SE 13.0 mph20.9 kmh 30.14 in1020.7 mb 0.00 in0.0 mm 0.00 in0.0 mm 0.00 in0.0 mm
12:35 PM 81.6°F27.6°C 67.3°F19.6°C 62% 7.0 mph SE11.3 kmh SE 18.0 mph29.0 kmh 30.14 in1020.7 mb 0.00 in0.0 mm 0.00 in0.0 mm 0.00 in0.0 mm
12:40 PM 82.3°F27.9°C 66.5°F19.2°C 59% 8.0 mph SE12.9 kmh SE 18.0 mph29.0 kmh 30.13 in1020.3 mb 0.00 in0.0 mm 0.00 in0.0 mm 0.00 in0.0 mm
12:45 PM 82.5°F28.1°C 66.2°F19.0°C 58% 7.0 mph SE11.3 kmh SE 14.0 mph22.5 kmh 30.14 in1020.7 mb 0.00 in0.0 mm 0.00 in0.0 mm 0.00 in0.0 mm
12:50 PM 82.2°F27.9°C 66.9°F19.4°C 60% 6.0 mph SE9.7 kmh SE 13.0 mph20.9 kmh 30.14 in1020.7 mb 0.00 in0.0 mm 0.00 in0.0 mm 0.00 in0.0 mm
12:55 PM 82.7°F28.2°C 67.4°F19.7°C 60% 6.0 mph SE9.7 kmh SE 11.0 mph17.7 kmh 30.14 in1020.7 mb 0.00 in0.0 mm 0.00 in0.0 mm 0.00 in0.0 mm
01:00 PM 83.3°F28.5°C 68.0°F20.0°C 60% 5.0 mph SE8.0 kmh SE 12.0 mph19.3 kmh 30.14 in1020.7 mb 0.00 in0.0 mm 0.00 in0.0 mm 0.00 in0.0 mm
01:05 PM 83.3°F28.5°C 66.5°F19.2°C 57% 5.0 mph SE8.0 kmh SE 13.0 mph20.9 kmh 30.15 in1021.0 mb 0.00 in0.0 mm 0.00 in0.0 mm 0.00 in0.0 mm
01:10 PM 82.7°F28.2°C 66.4°F19.1°C 58% 4.0 mph ESE6.4 kmh ESE 13.0 mph20.9 kmh 30.15 in1021.0 mb 0.00 in0.0 mm 0.00 in0.0 mm 0.00 in0.0 mm
01:15 PM 81.9°F27.7°C 66.2°F19.0°C 59% 5.0 mph SE8.0 kmh SE 10.0 mph16.1 kmh 30.14 in1020.7 mb 0.00 in0.0 mm 0.00 in0.0 mm 0.00 in0.0 mm
01:20 PM 81.5°F27.5°C 66.3°F19.1°C 60% 5.0 mph ESE8.0 kmh ESE 9.0 mph14.5 kmh 30.14 in1020.7 mb 0.00 in0.0 mm 0.00 in0.0 mm 0.00 in0.0 mm
01:25 PM 81.6°F27.6°C 66.4°F19.1°C 60% 4.0 mph SE6.4 kmh SE 10.0 mph16.1 kmh 30.14 in1020.7 mb 0.00 in0.0 mm 0.00 in0.0 mm 0.00 in0.0 mm
01:30 PM 81.8°F27.7°C 66.6°F19.2°C 60% 4.0 mph SE6.4 kmh SE 10.0 mph16.1 kmh 30.14 in1020.7 mb 0.00 in0.0 mm 0.00 in0.0 mm 0.00 in0.0 mm
01:35 PM 82.5°F28.1°C 66.7°F19.3°C 59% 4.0 mph ESE6.4 kmh ESE 10.0 mph16.1 kmh 30.14 in1020.7 mb 0.00 in0.0 mm 0.00 in0.0 mm 0.00 in0.0 mm
01:40 PM 82.7°F28.2°C 66.4°F19.1°C 58% 4.0 mph E6.4 kmh E 10.0 mph16.1 kmh 30.13 in1020.3 mb 0.00 in0.0 mm 0.00 in0.0 mm 0.00 in0.0 mm
01:45 PM 82.4°F28.0°C 66.6°F19.2°C 59% 4.0 mph ESE6.4 kmh ESE 11.0 mph17.7 kmh 30.13 in1020.3 mb 0.00 in0.0 mm 0.00 in0.0 mm 0.00 in0.0 mm
01:50 PM 82.7°F28.2°C 66.9°F19.4°C 59% 5.0 mph SE8.0 kmh SE 11.0 mph17.7 kmh 30.12 in1020.0 mb 0.00 in0.0 mm 0.00 in0.0 mm 0.00 in0.0 mm
01:55 PM 83.2°F28.4°C 65.9°F18.8°C 56% 5.0 mph SE8.0 kmh SE 10.0 mph16.1 kmh 30.12 in1020.0 mb 0.00 in0.0 mm 0.00 in0.0 mm 0.00 in0.0 mm
02:00 PM 83.2°F28.4°C 65.9°F18.8°C 56% 4.0 mph SE6.4 kmh SE 10.0 mph16.1 kmh 30.12 in1020.0 mb 0.00 in0.0 mm 0.00 in0.0 mm 0.00 in0.0 mm
02:05 PM 83.3°F28.5°C 66.5°F19.2°C 57% 4.0 mph ESE6.4 kmh ESE 9.0 mph14.5 kmh 30.12 in1020.0 mb 0.00 in0.0 mm 0.00 in0.0 mm 0.00 in0.0 mm
02:10 PM 83.0°F28.3°C 65.7°F18.7°C 56% 4.0 mph SE6.4 kmh SE 8.0 mph12.9 kmh 30.12 in1020.0 mb 0.00 in0.0 mm 0.00 in0.0 mm 0.00 in0.0 mm
02:15 PM 82.4°F28.0°C 65.6°F18.7°C 57% 4.0 mph SE6.4 kmh SE 8.0 mph12.9 kmh 30.11 in1019.6 mb 0.00 in0.0 mm 0.00 in0.0 mm 0.00 in0.0 mm
02:20 PM 82.6°F28.1°C 66.8°F19.3°C 59% 3.0 mph SE4.8 kmh SE 8.0 mph12.9 kmh 30.11 in1019.6 mb 0.00 in0.0 mm 0.00 in0.0 mm 0.00 in0.0 mm
02:25 PM 83.2°F28.4°C 66.4°F19.1°C 57% 4.0 mph E6.4 kmh E 8.0 mph12.9 kmh 30.11 in1019.6 mb 0.00 in0.0 mm 0.00 in0.0 mm 0.00 in0.0 mm
02:30 PM 83.3°F28.5°C 65.4°F18.6°C 55% 5.0 mph E8.0 kmh E 12.0 mph19.3 kmh 30.11 in1019.6 mb 0.00 in0.0 mm 0.00 in0.0 mm 0.00 in0.0 mm
02:35 PM 83.3°F28.5°C 65.4°F18.6°C 55% 6.0 mph E9.7 kmh E 12.0 mph19.3 kmh 30.10 in1019.3 mb 0.00 in0.0 mm 0.00 in0.0 mm 0.00 in0.0 mm
02:40 PM 83.5°F28.6°C 66.7°F19.3°C 57% 5.0 mph E8.0 kmh E 12.0 mph19.3 kmh 30.10 in1019.3 mb 0.00 in0.0 mm 0.00 in0.0 mm 0.00 in0.0 mm
02:45 PM 83.6°F28.7°C 65.2°F18.4°C 54% 4.0 mph E6.4 kmh E 12.0 mph19.3 kmh 30.09 in1019.0 mb 0.00 in0.0 mm 0.00 in0.0 mm 0.00 in0.0 mm
02:50 PM 83.3°F28.5°C 66.0°F18.9°C 56% 4.0 mph E6.4 kmh E 12.0 mph19.3 kmh 30.09 in1019.0 mb 0.00 in0.0 mm 0.00 in0.0 mm 0.00 in0.0 mm
02:55 PM 83.3°F28.5°C 64.9°F18.3°C 54% 4.0 mph ESE6.4 kmh ESE 9.0 mph14.5 kmh 30.09 in1019.0 mb 0.00 in0.0 mm 0.00 in0.0 mm 0.00 in0.0 mm
03:00 PM 83.6°F28.7°C 65.2°F18.4°C 54% 4.0 mph ESE6.4 kmh ESE 13.0 mph20.9 kmh 30.08 in1018.6 mb 0.00 in0.0 mm 0.00 in0.0 mm 0.00 in0.0 mm
03:05 PM 83.8°F28.8°C 64.8°F18.2°C 53% 4.0 mph ESE6.4 kmh ESE 13.0 mph20.9 kmh 30.08 in1018.6 mb 0.00 in0.0 mm 0.00 in0.0 mm 0.00 in0.0 mm
03:10 PM 83.8°F28.8°C 65.9°F18.8°C 55% 4.0 mph ESE6.4 kmh ESE 10.0 mph16.1 kmh 30.08 in1018.6 mb 0.00 in0.0 mm 0.00 in0.0 mm 0.00 in0.0 mm
03:15 PM 84.5°F29.2°C 66.0°F18.9°C 54% 4.0 mph ESE6.4 kmh ESE 10.0 mph16.1 kmh 30.08 in1018.6 mb 0.00 in0.0 mm 0.00 in0.0 mm 0.00 in0.0 mm
03:20 PM 84.8°F29.3°C 65.2°F18.4°C 52% 4.0 mph E6.4 kmh E 10.0 mph16.1 kmh 30.08 in1018.6 mb 0.00 in0.0 mm 0.00 in0.0 mm 0.00 in0.0 mm
03:25 PM 85.0°F29.4°C 66.5°F19.2°C 54% 4.0 mph E6.4 kmh E 11.0 mph17.7 kmh 30.08 in1018.6 mb 0.00 in0.0 mm 0.00 in0.0 mm 0.00 in0.0 mm
03:30 PM 85.7°F29.8°C 65.5°F18.6°C 51% 4.0 mph E6.4 kmh E 11.0 mph17.7 kmh 30.08 in1018.6 mb 0.00 in0.0 mm 0.00 in0.0 mm 0.00 in0.0 mm
03:35 PM 85.3°F29.6°C 65.1°F18.4°C 51% 4.0 mph E6.4 kmh E 9.0 mph14.5 kmh 30.08 in1018.6 mb 0.00 in0.0 mm 0.00 in0.0 mm 0.00 in0.0 mm
03:40 PM 84.8°F29.3°C 65.2°F18.4°C 52% 3.0 mph E4.8 kmh E 7.0 mph11.3 kmh 30.08 in1018.6 mb 0.00 in0.0 mm 0.00 in0.0 mm 0.00 in0.0 mm
03:45 PM 84.4°F29.1°C 65.4°F18.6°C 53% 3.0 mph E4.8 kmh E 8.0 mph12.9 kmh 30.08 in1018.6 mb 0.00 in0.0 mm 0.00 in0.0 mm 0.00 in0.0 mm
03:50 PM 84.2°F29.0°C 65.2°F18.4°C 53% 3.0 mph ESE4.8 kmh ESE 8.0 mph12.9 kmh 30.08 in1018.6 mb 0.00 in0.0 mm 0.00 in0.0 mm 0.00 in0.0 mm
03:55 PM 84.3°F29.1°C 64.8°F18.2°C 52% 3.0 mph ESE4.8 kmh ESE 8.0 mph12.9 kmh 30.08 in1018.6 mb 0.00 in0.0 mm 0.00 in0.0 mm 0.00 in0.0 mm
04:00 PM 84.6°F29.2°C 65.0°F18.3°C 52% 2.0 mph E3.2 kmh E 9.0 mph14.5 kmh 30.09 in1019.0 mb 0.00 in0.0 mm 0.00 in0.0 mm 0.00 in0.0 mm
04:05 PM 84.2°F29.0°C 64.7°F18.2°C 52% 3.0 mph E4.8 kmh E 10.0 mph16.1 kmh 30.09 in1019.0 mb 0.00 in0.0 mm 0.00 in0.0 mm 0.00 in0.0 mm
04:10 PM 83.7°F28.7°C 64.8°F18.2°C 53% 4.0 mph ENE6.4 kmh ENE 10.0 mph16.1 kmh 30.09 in1019.0 mb 0.00 in0.0 mm 0.00 in0.0 mm 0.00 in0.0 mm
04:15 PM 84.0°F28.9°C 65.6°F18.7°C 54% 3.0 mph E4.8 kmh E 9.0 mph14.5 kmh 30.08 in1018.6 mb 0.00 in0.0 mm 0.00 in0.0 mm 0.00 in0.0 mm
04:20 PM 84.8°F29.3°C 65.2°F18.4°C 52% 4.0 mph SE6.4 kmh SE 9.0 mph14.5 kmh 30.08 in1018.6 mb 0.00 in0.0 mm 0.00 in0.0 mm 0.00 in0.0 mm
04:25 PM 85.4°F29.7°C 65.2°F18.4°C 51% 4.0 mph SE6.4 kmh SE 9.0 mph14.5 kmh 30.08 in1018.6 mb 0.00 in0.0 mm 0.00 in0.0 mm 0.00 in0.0 mm
04:30 PM 86.3°F30.2°C 65.5°F18.6°C 50% 3.0 mph ESE4.8 kmh ESE 7.0 mph11.3 kmh 30.07 in1018.3 mb 0.00 in0.0 mm 0.00 in0.0 mm 0.00 in0.0 mm
04:35 PM 87.0°F30.6°C 65.5°F18.6°C 49% 3.0 mph ESE4.8 kmh ESE 7.0 mph11.3 kmh 30.07 in1018.3 mb 0.00 in0.0 mm 0.00 in0.0 mm 0.00 in0.0 mm
04:40 PM 87.7°F30.9°C 64.4°F18.0°C 46% 3.0 mph ESE4.8 kmh ESE 8.0 mph12.9 kmh 30.07 in1018.3 mb 0.00 in0.0 mm 0.00 in0.0 mm 0.00 in0.0 mm
04:45 PM 87.8°F31.0°C 65.7°F18.7°C 48% 4.0 mph ESE6.4 kmh ESE 8.0 mph12.9 kmh 30.07 in1018.3 mb 0.00 in0.0 mm 0.00 in0.0 mm 0.00 in0.0 mm
04:50 PM 88.2°F31.2°C 66.0°F18.9°C 48% 4.0 mph ESE6.4 kmh ESE 9.0 mph14.5 kmh 30.07 in1018.3 mb 0.00 in0.0 mm 0.00 in0.0 mm 0.00 in0.0 mm
04:55 PM 88.4°F31.3°C 65.6°F18.7°C 47% 4.0 mph ESE6.4 kmh ESE 10.0 mph16.1 kmh 30.07 in1018.3 mb 0.00 in0.0 mm 0.00 in0.0 mm 0.00 in0.0 mm
05:00 PM 88.3°F31.3°C 65.5°F18.6°C 47% 4.0 mph ESE6.4 kmh ESE 10.0 mph16.1 kmh 30.07 in1018.3 mb 0.00 in0.0 mm 0.00 in0.0 mm 0.00 in0.0 mm
05:05 PM 87.8°F31.0°C 65.7°F18.7°C 48% 4.0 mph E6.4 kmh E 10.0 mph16.1 kmh 30.06 in1017.9 mb 0.00 in0.0 mm 0.00 in0.0 mm 0.00 in0.0 mm
05:10 PM 87.5°F30.8°C 65.4°F18.6°C 48% 4.0 mph E6.4 kmh E 8.0 mph12.9 kmh 30.06 in1017.9 mb 0.00 in0.0 mm 0.00 in0.0 mm 0.00 in0.0 mm
05:15 PM 87.3°F30.7°C 65.8°F18.8°C 49% 4.0 mph ENE6.4 kmh ENE 9.0 mph14.5 kmh 30.06 in1017.9 mb 0.00 in0.0 mm 0.00 in0.0 mm 0.00 in0.0 mm
05:20 PM 87.2°F30.7°C 65.7°F18.7°C 49% 4.0 mph ENE6.4 kmh ENE 9.0 mph14.5 kmh 30.06 in1017.9 mb 0.00 in0.0 mm 0.00 in0.0 mm 0.00 in0.0 mm
05:25 PM 87.2°F30.7°C 65.7°F18.7°C 49% 4.0 mph ENE6.4 kmh ENE 9.0 mph14.5 kmh 30.06 in1017.9 mb 0.00 in0.0 mm 0.00 in0.0 mm 0.00 in0.0 mm
05:30 PM 87.2°F30.7°C 65.7°F18.7°C 49% 4.0 mph ENE6.4 kmh ENE 9.0 mph14.5 kmh 30.05 in1017.6 mb 0.00 in0.0 mm 0.00 in0.0 mm 0.00 in0.0 mm
05:35 PM 87.3°F30.7°C 66.4°F19.1°C 50% 3.0 mph E4.8 kmh E 8.0 mph12.9 kmh 30.05 in1017.6 mb 0.00 in0.0 mm 0.00 in0.0 mm 0.00 in0.0 mm
05:40 PM 87.6°F30.9°C 66.1°F18.9°C 49% 3.0 mph E4.8 kmh E 8.0 mph12.9 kmh 30.05 in1017.6 mb 0.00 in0.0 mm 0.00 in0.0 mm 0.00 in0.0 mm
05:45 PM 87.0°F30.6°C 65.5°F18.6°C 49% 4.0 mph E6.4 kmh E 11.0 mph17.7 kmh 30.05 in1017.6 mb 0.00 in0.0 mm 0.00 in0.0 mm 0.00 in0.0 mm
05:50 PM 86.0°F30.0°C 65.2°F18.4°C 50% 4.0 mph ESE6.4 kmh ESE 11.0 mph17.7 kmh 30.05 in1017.6 mb 0.00 in0.0 mm 0.00 in0.0 mm 0.00 in0.0 mm
05:55 PM 85.1°F29.5°C 64.9°F18.3°C 51% 2.0 mph E3.2 kmh E 7.0 mph11.3 kmh 30.05 in1017.6 mb 0.00 in0.0 mm 0.00 in0.0 mm 0.00 in0.0 mm
06:00 PM 85.0°F29.4°C 65.4°F18.6°C 52% 2.0 mph ENE3.2 kmh ENE 5.0 mph8.0 kmh 30.05 in1017.6 mb 0.00 in0.0 mm 0.00 in0.0 mm 0.00 in0.0 mm
06:05 PM 85.0°F29.4°C 65.4°F18.6°C 52% 2.0 mph E3.2 kmh E 5.0 mph8.0 kmh 30.05 in1017.6 mb 0.00 in0.0 mm 0.00 in0.0 mm 0.00 in0.0 mm
06:10 PM 84.7°F29.3°C 65.1°F18.4°C 52% 3.0 mph E4.8 kmh E 7.0 mph11.3 kmh 30.05 in1017.6 mb 0.00 in0.0 mm 0.00 in0.0 mm 0.00 in0.0 mm
06:15 PM 83.8°F28.8°C 64.8°F18.2°C 53% 4.0 mph ENE6.4 kmh ENE 10.0 mph16.1 kmh 30.05 in1017.6 mb 0.00 in0.0 mm 0.00 in0.0 mm 0.00 in0.0 mm
06:20 PM 83.0°F28.3°C 64.6°F18.1°C 54% 4.0 mph ENE6.4 kmh ENE 10.0 mph16.1 kmh 30.05 in1017.6 mb 0.00 in0.0 mm 0.00 in0.0 mm 0.00 in0.0 mm
06:25 PM 82.5°F28.1°C 64.7°F18.2°C 55% 3.0 mph E4.8 kmh E 10.0 mph16.1 kmh 30.05 in1017.6 mb 0.00 in0.0 mm 0.00 in0.0 mm 0.00 in0.0 mm
06:30 PM 82.4°F28.0°C 65.1°F18.4°C 56% 2.0 mph E3.2 kmh E 7.0 mph11.3 kmh 30.05 in1017.6 mb 0.00 in0.0 mm 0.00 in0.0 mm 0.00 in0.0 mm
06:35 PM 82.0°F27.8°C 65.3°F18.5°C 57% 2.0 mph E3.2 kmh E 4.0 mph6.4 kmh 30.05 in1017.6 mb 0.00 in0.0 mm 0.00 in0.0 mm 0.00 in0.0 mm
06:40 PM 81.6°F27.6°C 64.9°F18.3°C 57% 2.0 mph ESE3.2 kmh ESE 5.0 mph8.0 kmh 30.05 in1017.6 mb 0.00 in0.0 mm 0.00 in0.0 mm 0.00 in0.0 mm
06:45 PM 81.2°F27.3°C 65.0°F18.3°C 58% 2.0 mph E3.2 kmh E 7.0 mph11.3 kmh 30.05 in1017.6 mb 0.00 in0.0 mm 0.00 in0.0 mm 0.00 in0.0 mm
06:50 PM 81.0°F27.2°C 64.8°F18.2°C 58% 2.0 mph E3.2 kmh E 7.0 mph11.3 kmh 30.05 in1017.6 mb 0.00 in0.0 mm 0.00 in0.0 mm 0.00 in0.0 mm
06:55 PM 80.7°F27.1°C 64.5°F18.1°C 58% 2.0 mph E3.2 kmh E 5.0 mph8.0 kmh 30.05 in1017.6 mb 0.00 in0.0 mm 0.00 in0.0 mm 0.00 in0.0 mm
07:00 PM 80.3°F26.8°C 64.2°F17.9°C 58% 3.0 mph ESE4.8 kmh ESE 7.0 mph11.3 kmh 30.05 in1017.6 mb 0.00 in0.0 mm 0.00 in0.0 mm 0.00 in0.0 mm
07:05 PM 79.9°F26.6°C 63.8°F17.7°C 58% 3.0 mph ESE4.8 kmh ESE 7.0 mph11.3 kmh 30.05 in1017.6 mb 0.00 in0.0 mm 0.00 in0.0 mm 0.00 in0.0 mm
07:10 PM 79.7°F26.5°C 64.1°F17.8°C 59% 3.0 mph ESE4.8 kmh ESE 7.0 mph11.3 kmh 30.05 in1017.6 mb 0.00 in0.0 mm 0.00 in0.0 mm 0.00 in0.0 mm
07:15 PM 79.3°F26.3°C 64.2°F17.9°C 60% 2.0 mph ESE3.2 kmh ESE 7.0 mph11.3 kmh 30.05 in1017.6 mb 0.00 in0.0 mm 0.00 in0.0 mm 0.00 in0.0 mm
07:20 PM 78.9°F26.1°C 63.8°F17.7°C 60% 2.0 mph ESE3.2 kmh ESE 5.0 mph8.0 kmh 30.05 in1017.6 mb 0.00 in0.0 mm 0.00 in0.0 mm 0.00 in0.0 mm
07:25 PM 78.4°F25.8°C 63.8°F17.7°C 61% 2.0 mph ESE3.2 kmh ESE 5.0 mph8.0 kmh 30.06 in1017.9 mb 0.00 in0.0 mm 0.00 in0.0 mm 0.00 in0.0 mm
07:30 PM 78.0°F25.6°C 63.9°F17.7°C 62% 2.0 mph ESE3.2 kmh ESE 5.0 mph8.0 kmh 30.06 in1017.9 mb 0.00 in0.0 mm 0.00 in0.0 mm 0.00 in0.0 mm
07:35 PM 77.6°F25.3°C 63.5°F17.5°C 62% 2.0 mph ESE3.2 kmh ESE 6.0 mph9.7 kmh 30.06 in1017.9 mb 0.00 in0.0 mm 0.00 in0.0 mm 0.00 in0.0 mm
07:40 PM 77.3°F25.2°C 63.7°F17.6°C 63% 2.0 mph ESE3.2 kmh ESE 6.0 mph9.7 kmh 30.07 in1018.3 mb 0.00 in0.0 mm 0.00 in0.0 mm 0.00 in0.0 mm
07:45 PM 76.9°F24.9°C 63.3°F17.4°C 63% 1.0 mph ESE1.6 kmh ESE 4.0 mph6.4 kmh 30.07 in1018.3 mb 0.00 in0.0 mm 0.00 in0.0 mm 0.00 in0.0 mm
07:50 PM 76.5°F24.7°C 63.4°F17.4°C 64% 1.0 mph ESE1.6 kmh ESE 3.0 mph4.8 kmh 30.07 in1018.3 mb 0.00 in0.0 mm 0.00 in0.0 mm 0.00 in0.0 mm
07:55 PM 76.1°F24.5°C 63.5°F17.5°C 65% 1.0 mph ESE1.6 kmh ESE 2.0 mph3.2 kmh 30.07 in1018.3 mb 0.00 in0.0 mm 0.00 in0.0 mm 0.00 in0.0 mm
08:00 PM 75.7°F24.3°C 63.1°F17.3°C 65% 1.0 mph ESE1.6 kmh ESE 2.0 mph3.2 kmh 30.07 in1018.3 mb 0.00 in0.0 mm 0.00 in0.0 mm 0.00 in0.0 mm
08:05 PM 75.3°F24.1°C 63.2°F17.3°C 66% 1.0 mph ESE1.6 kmh ESE 3.0 mph4.8 kmh 30.07 in1018.3 mb 0.00 in0.0 mm 0.00 in0.0 mm 0.00 in0.0 mm
08:10 PM 74.9°F23.8°C 62.8°F17.1°C 66% 1.0 mph ESE1.6 kmh ESE 3.0 mph4.8 kmh 30.07 in1018.3 mb 0.00 in0.0 mm 0.00 in0.0 mm 0.00 in0.0 mm
08:15 PM 74.6°F23.7°C 62.9°F17.2°C 67% 1.0 mph ESE1.6 kmh ESE 4.0 mph6.4 kmh 30.07 in1018.3 mb 0.00 in0.0 mm 0.00 in0.0 mm 0.00 in0.0 mm
08:20 PM 74.3°F23.5°C 62.6°F17.0°C 67% 1.0 mph ESE1.6 kmh ESE 4.0 mph6.4 kmh 30.07 in1018.3 mb 0.00 in0.0 mm 0.00 in0.0 mm 0.00 in0.0 mm
08:25 PM 74.0°F23.3°C 62.3°F16.8°C 67% 1.0 mph ESE1.6 kmh ESE 4.0 mph6.4 kmh 30.07 in1018.3 mb 0.00 in0.0 mm 0.00 in0.0 mm 0.00 in0.0 mm
08:30 PM 73.8°F23.2°C 62.6°F17.0°C 68% 2.0 mph ESE3.2 kmh ESE 5.0 mph8.0 kmh 30.08 in1018.6 mb 0.00 in0.0 mm 0.00 in0.0 mm 0.00 in0.0 mm
08:35 PM 73.7°F23.2°C 62.5°F16.9°C 68% 2.0 mph E3.2 kmh E 5.0 mph8.0 kmh 30.08 in1018.6 mb 0.00 in0.0 mm 0.00 in0.0 mm 0.00 in0.0 mm
08:40 PM 73.6°F23.1°C 62.4°F16.9°C 68% 2.0 mph E3.2 kmh E 5.0 mph8.0 kmh 30.08 in1018.6 mb 0.00 in0.0 mm 0.00 in0.0 mm 0.00 in0.0 mm
08:45 PM 73.5°F23.1°C 62.3°F16.8°C 68% 2.0 mph ESE3.2 kmh ESE 5.0 mph8.0 kmh 30.08 in1018.6 mb 0.00 in0.0 mm 0.00 in0.0 mm 0.00 in0.0 mm
08:50 PM 73.4°F23.0°C 62.2°F16.8°C 68% 2.0 mph ESE3.2 kmh ESE 6.0 mph9.7 kmh 30.08 in1018.6 mb 0.00 in0.0 mm 0.00 in0.0 mm 0.00 in0.0 mm
08:55 PM 73.3°F22.9°C 62.5°F16.9°C 69% 2.0 mph E3.2 kmh E 6.0 mph9.7 kmh 30.09 in1019.0 mb 0.00 in0.0 mm 0.00 in0.0 mm 0.00 in0.0 mm
09:00 PM 73.1°F22.8°C 62.3°F16.8°C 69% 2.0 mph ESE3.2 kmh ESE 6.0 mph9.7 kmh 30.09 in1019.0 mb 0.00 in0.0 mm 0.00 in0.0 mm 0.00 in0.0 mm
09:05 PM 72.9°F22.7°C 62.1°F16.7°C 69% 2.0 mph ESE3.2 kmh ESE 5.0 mph8.0 kmh 30.09 in1019.0 mb 0.00 in0.0 mm 0.00 in0.0 mm 0.00 in0.0 mm
09:10 PM 72.7°F22.6°C 61.9°F16.6°C 69% 2.0 mph ESE3.2 kmh ESE 7.0 mph11.3 kmh 30.09 in1019.0 mb 0.00 in0.0 mm 0.00 in0.0 mm 0.00 in0.0 mm
09:15 PM 72.5°F22.5°C 61.7°F16.5°C 69% 2.0 mph ESE3.2 kmh ESE 7.0 mph11.3 kmh 30.09 in1019.0 mb 0.00 in0.0 mm 0.00 in0.0 mm 0.00 in0.0 mm
09:20 PM 72.3°F22.4°C 61.6°F16.4°C 69% 2.0 mph SE3.2 kmh SE 4.0 mph6.4 kmh 30.10 in1019.3 mb 0.00 in0.0 mm 0.00 in0.0 mm 0.00 in0.0 mm
09:25 PM 72.1°F22.3°C 61.4°F16.3°C 69% 2.0 mph ESE3.2 kmh ESE 9.0 mph14.5 kmh 30.09 in1019.0 mb 0.00 in0.0 mm 0.00 in0.0 mm 0.00 in0.0 mm
09:30 PM 71.9°F22.2°C 61.2°F16.2°C 69% 3.0 mph ESE4.8 kmh ESE 9.0 mph14.5 kmh 30.10 in1019.3 mb 0.00 in0.0 mm 0.00 in0.0 mm 0.00 in0.0 mm
09:35 PM 71.8°F22.1°C 61.1°F16.2°C 69% 3.0 mph ESE4.8 kmh ESE 8.0 mph12.9 kmh 30.10 in1019.3 mb 0.00 in0.0 mm 0.00 in0.0 mm 0.00 in0.0 mm
09:40 PM 71.6°F22.0°C 60.9°F16.1°C 69% 2.0 mph E3.2 kmh E 8.0 mph12.9 kmh 30.10 in1019.3 mb 0.00 in0.0 mm 0.00 in0.0 mm 0.00 in0.0 mm
09:45 PM 71.5°F21.9°C 60.8°F16.0°C 69% 2.0 mph E3.2 kmh E 7.0 mph11.3 kmh 30.10 in1019.3 mb 0.00 in0.0 mm 0.00 in0.0 mm 0.00 in0.0 mm
09:50 PM 71.3°F21.8°C 60.6°F15.9°C 69% 3.0 mph ESE4.8 kmh ESE 10.0 mph16.1 kmh 30.11 in1019.6 mb 0.00 in0.0 mm 0.00 in0.0 mm 0.00 in0.0 mm
09:55 PM 71.2°F21.8°C 60.5°F15.8°C 69% 3.0 mph ESE4.8 kmh ESE 10.0 mph16.1 kmh 30.11 in1019.6 mb 0.00 in0.0 mm 0.00 in0.0 mm 0.00 in0.0 mm
10:00 PM 71.0°F21.7°C 60.3°F15.7°C 69% 3.0 mph ESE4.8 kmh ESE 8.0 mph12.9 kmh 30.11 in1019.6 mb 0.00 in0.0 mm 0.00 in0.0 mm 0.00 in0.0 mm
10:05 PM 70.9°F21.6°C 60.2°F15.7°C 69% 3.0 mph ESE4.8 kmh ESE 8.0 mph12.9 kmh 30.11 in1019.6 mb 0.00 in0.0 mm 0.00 in0.0 mm 0.00 in0.0 mm
10:10 PM 70.7°F21.5°C 60.0°F15.6°C 69% 3.0 mph ESE4.8 kmh ESE 8.0 mph12.9 kmh 30.11 in1019.6 mb 0.00 in0.0 mm 0.00 in0.0 mm 0.00 in0.0 mm
10:15 PM 70.6°F21.4°C 59.9°F15.5°C 69% 3.0 mph E4.8 kmh E 9.0 mph14.5 kmh 30.11 in1019.6 mb 0.00 in0.0 mm 0.00 in0.0 mm 0.00 in0.0 mm
10:20 PM 70.5°F21.4°C 59.4°F15.2°C 68% 3.0 mph E4.8 kmh E 9.0 mph14.5 kmh 30.11 in1019.6 mb 0.00 in0.0 mm 0.00 in0.0 mm 0.00 in0.0 mm
10:25 PM 70.4°F21.3°C 59.3°F15.2°C 68% 3.0 mph E4.8 kmh E 13.0 mph20.9 kmh 30.11 in1019.6 mb 0.00 in0.0 mm 0.00 in0.0 mm 0.00 in0.0 mm
10:30 PM 70.3°F21.3°C 58.8°F14.9°C 67% 3.0 mph E4.8 kmh E 13.0 mph20.9 kmh 30.12 in1020.0 mb 0.00 in0.0 mm 0.00 in0.0 mm 0.00 in0.0 mm
10:35 PM 70.1°F21.2°C 58.2°F14.6°C 66% 3.0 mph E4.8 kmh E 8.0 mph12.9 kmh 30.12 in1020.0 mb 0.00 in0.0 mm 0.00 in0.0 mm 0.00 in0.0 mm
10:40 PM 70.0°F21.1°C 57.7°F14.3°C 65% 3.0 mph ESE4.8 kmh ESE 8.0 mph12.9 kmh 30.12 in1020.0 mb 0.00 in0.0 mm 0.00 in0.0 mm 0.00 in0.0 mm
10:45 PM 69.8°F21.0°C 57.1°F13.9°C 64% 3.0 mph ESE4.8 kmh ESE 8.0 mph12.9 kmh 30.12 in1020.0 mb 0.00 in0.0 mm 0.00 in0.0 mm 0.00 in0.0 mm
10:50 PM 69.7°F20.9°C 56.1°F13.4°C 62% 3.0 mph ESE4.8 kmh ESE 8.0 mph12.9 kmh 30.11 in1019.6 mb 0.00 in0.0 mm 0.00 in0.0 mm 0.00 in0.0 mm
10:55 PM 69.6°F20.9°C 55.6°F13.1°C 61% 3.0 mph ESE4.8 kmh ESE 8.0 mph12.9 kmh 30.12 in1020.0 mb 0.00 in0.0 mm 0.00 in0.0 mm 0.00 in0.0 mm
11:00 PM 69.4°F20.8°C 54.4°F12.4°C 59% 3.0 mph ESE4.8 kmh ESE 8.0 mph12.9 kmh 30.12 in1020.0 mb 0.00 in0.0 mm 0.00 in0.0 mm 0.00 in0.0 mm
11:05 PM 69.2°F20.7°C 53.8°F12.1°C 58% 3.0 mph ESE4.8 kmh ESE 8.0 mph12.9 kmh 30.12 in1020.0 mb 0.00 in0.0 mm 0.00 in0.0 mm 0.00 in0.0 mm
11:10 PM 69.1°F20.6°C 52.7°F11.5°C 56% 3.0 mph ESE4.8 kmh ESE 8.0 mph12.9 kmh 30.12 in1020.0 mb 0.00 in0.0 mm 0.00 in0.0 mm 0.00 in0.0 mm
11:15 PM 69.0°F20.6°C 51.7°F10.9°C 54% 2.0 mph SE3.2 kmh SE 6.0 mph9.7 kmh 30.12 in1020.0 mb 0.00 in0.0 mm 0.00 in0.0 mm 0.00 in0.0 mm
11:20 PM 68.8°F20.4°C 50.5°F10.3°C 52% 3.0 mph SE4.8 kmh SE 8.0 mph12.9 kmh 30.13 in1020.3 mb 0.00 in0.0 mm 0.00 in0.0 mm 0.00 in0.0 mm
11:25 PM 68.6°F20.3°C 48.7°F9.3°C 49% 3.0 mph SE4.8 kmh SE 8.0 mph12.9 kmh 30.13 in1020.3 mb 0.00 in0.0 mm 0.00 in0.0 mm 0.00 in0.0 mm
11:30 PM 68.5°F20.3°C 46.9°F8.3°C 46% 3.0 mph ESE4.8 kmh ESE 7.0 mph11.3 kmh 30.13 in1020.3 mb 0.00 in0.0 mm 0.00 in0.0 mm 0.00 in0.0 mm
11:35 PM 68.4°F20.2°C 46.2°F7.9°C 45% 3.0 mph ESE4.8 kmh ESE 7.0 mph11.3 kmh 30.13 in1020.3 mb 0.00 in0.0 mm 0.00 in0.0 mm 0.00 in0.0 mm
11:40 PM 68.3°F20.2°C 44.9°F7.2°C 43% 2.0 mph ESE3.2 kmh ESE 6.0 mph9.7 kmh 30.13 in1020.3 mb 0.00 in0.0 mm 0.00 in0.0 mm 0.00 in0.0 mm
11:45 PM 68.2°F20.1°C 43.6°F6.4°C 41% 2.0 mph ESE3.2 kmh ESE 6.0 mph9.7 kmh 30.13 in1020.3 mb 0.00 in0.0 mm 0.00 in0.0 mm 0.00 in0.0 mm
11:50 PM 68.1°F20.1°C 42.2°F5.7°C 39% 3.0 mph ESE4.8 kmh ESE 6.0 mph9.7 kmh 30.13 in1020.3 mb 0.00 in0.0 mm 0.00 in0.0 mm 0.00 in0.0 mm
11:55 PM 68.1°F20.1°C 40.8°F4.9°C 37% 3.0 mph ESE4.8 kmh ESE 7.0 mph11.3 kmh 30.13 in1020.3 mb 0.00 in0.0 mm 0.00 in0.0 mm 0.00 in0.0 mm